createdAt,value
2023-09-08T00:00:38.311Z,99980.06
2023-09-08T00:01:39.988Z,99975.75
2023-09-08T00:02:41.802Z,99981.19
2023-09-08T00:03:43.498Z,99979.94
2023-09-08T00:04:45.200Z,99977.50
2023-09-08T00:05:46.901Z,99976.34
2023-09-08T00:06:48.669Z,99982.50
2023-09-08T00:07:50.382Z,99980.00
2023-09-08T00:08:52.136Z,99974.84
2023-09-08T00:09:53.752Z,99973.34
2023-09-08T00:10:55.415Z,99978.94
2023-09-08T00:11:57.125Z,99973.91
2023-09-08T00:12:58.905Z,99984.53
2023-09-08T00:14:00.731Z,99980.06
2023-09-08T00:15:02.416Z,99976.56
2023-09-08T00:16:04.250Z,99977.41
2023-09-08T00:17:06.040Z,99979.22
2023-09-08T00:18:07.744Z,99978.41
2023-09-08T00:19:11.092Z,99982.88
2023-09-08T00:20:12.874Z,99984.53
2023-09-08T00:21:14.531Z,99978.00
2023-09-08T00:22:16.184Z,99976.19
2023-09-08T00:23:17.819Z,99978.16
2023-09-08T00:24:19.660Z,99980.16
2023-09-08T00:25:21.315Z,99981.41
2023-09-08T00:26:23.107Z,99979.03
2023-09-08T00:27:25.227Z,99981.31
2023-09-08T00:28:26.973Z,99983.56
2023-09-08T00:29:28.758Z,99980.34
2023-09-08T00:30:30.562Z,99986.25
2023-09-08T00:31:32.207Z,99978.63
2023-09-08T00:32:34.016Z,99984.34
2023-09-08T00:33:36.016Z,99985.78
2023-09-08T00:34:37.719Z,99980.91
2023-09-08T00:35:39.549Z,99980.34
2023-09-08T00:36:41.687Z,99983.56
2023-09-08T00:37:43.589Z,99984.38
2023-09-08T00:38:45.383Z,99986.50
2023-09-08T00:39:47.253Z,99982.88
2023-09-08T00:40:48.923Z,99987.03
2023-09-08T00:41:50.601Z,99981.88
2023-09-08T00:42:52.216Z,99980.06
2023-09-08T00:43:53.876Z,99978.25
2023-09-08T00:44:55.538Z,99979.78
2023-09-08T00:45:57.675Z,99977.66
2023-09-08T00:46:59.649Z,99979.50
2023-09-08T00:48:01.477Z,99979.50
2023-09-08T00:49:03.428Z,99982.44
2023-09-08T00:50:06.016Z,99979.25
2023-09-08T00:51:09.302Z,99974.22
2023-09-08T00:52:11.279Z,99971.41
2023-09-08T00:53:13.712Z,99977.56
2023-09-08T00:54:15.966Z,99971.59
2023-09-08T00:55:18.590Z,99978.13
2023-09-08T00:56:20.452Z,99977.16
2023-09-08T00:57:22.153Z,99980.50
2023-09-08T00:58:23.912Z,99977.03
2023-09-08T00:59:26.150Z,99978.31
2023-09-08T01:00:27.990Z,99976.47
2023-09-08T01:01:30.036Z,99978.44
2023-09-08T01:02:31.769Z,99974.56
2023-09-08T01:03:33.516Z,99977.06
2023-09-08T01:04:36.529Z,99976.09
2023-09-08T01:05:40.187Z,99976.91
2023-09-08T01:06:43.360Z,99978.75
2023-09-08T01:07:45.932Z,99973.56
2023-09-08T01:08:48.051Z,99983.19
2023-09-08T01:09:50.142Z,99975.91
2023-09-08T01:10:51.996Z,99975.78
2023-09-08T01:11:53.724Z,99977.44
2023-09-08T01:12:55.394Z,99969.19
2023-09-08T01:13:57.019Z,99973.69
2023-09-08T01:14:58.708Z,99983.59
2023-09-08T01:16:00.491Z,99971.59
2023-09-08T01:17:02.260Z,99978.56
2023-09-08T01:18:05.905Z,99973.97
2023-09-08T01:19:14.022Z,99974.94
2023-09-08T01:20:28.439Z,99977.88
2023-09-08T01:21:59.234Z,99979.00
2023-09-08T01:23:16.151Z,99976.66
2023-09-08T01:24:39.232Z,99978.75
2023-09-08T01:26:18.248Z,99976.81
2023-09-08T01:27:21.031Z,99978.31
2023-09-08T01:28:23.486Z,99975.53
2023-09-08T01:29:26.485Z,99977.19
2023-09-08T01:30:30.994Z,99974.41
2023-09-08T01:31:32.826Z,99977.06
2023-09-08T01:32:35.645Z,99973.56
2023-09-08T01:33:38.013Z,99976.22
2023-09-08T01:34:39.900Z,99970.78
2023-09-08T01:35:41.648Z,99972.75
2023-09-08T01:36:43.693Z,99975.41
2023-09-08T01:37:49.469Z,99967.88
2023-09-08T01:38:51.294Z,99970.97
2023-09-08T01:39:53.151Z,99967.63
2023-09-08T01:40:55.799Z,99970.97
2023-09-08T01:41:57.690Z,99968.59
2023-09-08T01:43:00.023Z,99970.28
2023-09-08T01:44:02.087Z,99971.38
2023-09-08T01:45:04.112Z,99968.75
2023-09-08T01:46:06.024Z,99963.44
2023-09-08T01:47:07.845Z,99965.97
2023-09-08T01:48:09.891Z,99967.63
2023-09-08T01:49:11.603Z,99961.59
2023-09-08T01:50:13.319Z,99967.88
2023-09-08T01:51:14.966Z,99978.22
2023-09-08T01:52:16.606Z,99970.13
2023-09-08T01:53:18.244Z,99960.66
2023-09-08T01:54:19.901Z,99974.59
2023-09-08T01:55:21.594Z,99974.88
2023-09-08T01:56:23.230Z,99970.13
2023-09-08T01:57:25.212Z,99973.44
2023-09-08T01:58:26.860Z,99972.34
2023-09-08T01:59:28.563Z,99967.63
2023-09-08T02:00:30.288Z,99974.88
2023-09-08T02:01:32.028Z,99972.94
2023-09-08T02:02:33.733Z,99971.09
2023-09-08T02:03:35.708Z,99973.63
2023-09-08T02:04:37.567Z,99972.06
2023-09-08T02:05:41.080Z,99967.47
2023-09-08T02:06:42.789Z,99972.06
2023-09-08T02:07:44.473Z,99980.16
2023-09-08T02:08:46.201Z,99977.50
2023-09-08T02:09:47.846Z,99976.69
2023-09-08T02:10:49.542Z,99977.97
2023-09-08T02:11:51.186Z,99976.44
2023-09-08T02:12:53.655Z,99973.91
2023-09-08T02:13:58.043Z,99976.72
2023-09-08T02:15:00.280Z,99983.28
2023-09-08T02:16:02.183Z,99974.22
2023-09-08T02:17:04.286Z,99982.84
2023-09-08T02:18:08.067Z,99977.41
2023-09-08T02:19:09.761Z,99974.09
2023-09-08T02:20:11.926Z,99976.72
2023-09-08T02:21:13.635Z,99980.19
2023-09-08T02:22:15.315Z,99978.41
2023-09-08T02:23:16.998Z,99980.19
2023-09-08T02:24:18.687Z,99979.38
2023-09-08T02:25:20.344Z,99975.31
2023-09-08T02:26:22.012Z,99973.97
2023-09-08T02:27:23.669Z,99978.69
2023-09-08T02:28:26.677Z,99973.13
2023-09-08T02:29:28.691Z,99976.75
2023-09-08T02:30:30.678Z,99981.22
2023-09-08T02:31:32.616Z,99975.91
2023-09-08T02:32:34.901Z,99979.41
2023-09-08T02:33:36.883Z,99965.19
2023-09-08T02:34:38.709Z,99971.34
2023-09-08T02:35:41.748Z,99970.06
2023-09-08T02:36:44.312Z,99975.22
2023-09-08T02:37:46.083Z,99967.53
2023-09-08T02:38:48.234Z,99973.81
2023-09-08T02:39:49.909Z,99973.00
2023-09-08T02:40:51.601Z,99965.31
2023-09-08T02:41:53.297Z,99968.94
2023-09-08T02:42:54.950Z,99966.31
2023-09-08T02:43:56.811Z,99966.19
2023-09-08T02:44:58.898Z,99968.97
2023-09-08T02:46:00.710Z,99965.50
2023-09-08T02:47:02.544Z,99964.78
2023-09-08T02:48:04.735Z,99952.41
2023-09-08T02:49:07.241Z,99953.50
2023-09-08T02:50:09.399Z,99954.06
2023-09-08T02:51:11.050Z,99954.19
2023-09-08T02:52:12.682Z,99955.44
2023-09-08T02:53:14.429Z,99962.97
2023-09-08T02:54:16.150Z,99955.00
2023-09-08T02:55:17.788Z,99958.91
2023-09-08T02:56:19.677Z,99960.19
2023-09-08T02:57:21.399Z,99967.69
2023-09-08T02:58:23.414Z,99960.34
2023-09-08T02:59:25.058Z,99952.78
2023-09-08T03:00:26.708Z,99958.22
2023-09-08T03:01:28.414Z,99964.22
2023-09-08T03:02:31.768Z,99956.28
2023-09-08T03:03:33.753Z,99951.97
2023-09-08T03:04:35.547Z,99952.91
2023-09-08T03:05:37.450Z,99951.25
2023-09-08T03:06:39.119Z,99952.38
2023-09-08T03:07:40.800Z,99950.00
2023-09-08T03:08:42.831Z,99954.59
2023-09-08T03:09:44.872Z,99945.28
2023-09-08T03:10:46.496Z,99948.22
2023-09-08T03:11:48.222Z,99948.22
2023-09-08T03:12:49.925Z,99947.50
2023-09-08T03:13:52.110Z,99943.34
2023-09-08T03:14:53.779Z,99945.16
2023-09-08T03:15:56.405Z,99945.31
2023-09-08T03:16:58.115Z,99944.06
2023-09-08T03:18:00.658Z,99948.78
2023-09-08T03:19:02.371Z,99946.44
2023-09-08T03:20:04.300Z,99952.94
2023-09-08T03:21:07.096Z,99946.97
2023-09-08T03:22:08.718Z,99948.91
2023-09-08T03:23:10.356Z,99951.00
2023-09-08T03:24:12.058Z,99948.47
2023-09-08T03:25:17.156Z,99946.69
2023-09-08T03:26:18.880Z,99942.66
2023-09-08T03:27:20.556Z,99950.84
2023-09-08T03:28:22.240Z,99936.38
2023-09-08T03:29:23.871Z,99940.44
2023-09-08T03:30:25.599Z,99939.28
2023-09-08T03:31:27.545Z,99938.06
2023-09-08T03:32:29.898Z,99938.59
2023-09-08T03:33:32.242Z,99935.81
2023-09-08T03:34:34.717Z,99942.91
2023-09-08T03:35:36.578Z,99939.84
2023-09-08T03:36:38.482Z,99942.91
2023-09-08T03:37:40.222Z,99943.88
2023-09-08T03:38:41.867Z,99941.25
2023-09-08T03:39:43.556Z,99946.81
2023-09-08T03:40:45.397Z,99941.66
2023-09-08T03:41:47.147Z,99939.41
2023-09-08T03:42:48.893Z,99937.34
2023-09-08T03:43:50.594Z,99934.53
2023-09-08T03:44:52.886Z,99945.00
2023-09-08T03:45:54.849Z,99935.66
2023-09-08T03:46:57.515Z,99938.44
2023-09-08T03:47:59.218Z,99938.16
2023-09-08T03:49:00.857Z,99939.94
2023-09-08T03:50:02.812Z,99945.38
2023-09-08T03:51:04.576Z,99943.56
2023-09-08T03:52:06.404Z,99939.00
2023-09-08T03:53:08.088Z,99937.28
2023-09-08T03:54:10.121Z,99937.56
2023-09-08T03:55:11.747Z,99939.25
2023-09-08T03:56:13.459Z,99948.84
2023-09-08T03:57:15.402Z,99935.63
2023-09-08T03:58:17.106Z,99937.28
2023-09-08T03:59:18.873Z,99931.06
2023-09-08T04:00:20.647Z,99935.78
2023-09-08T04:01:22.531Z,99937.63
2023-09-08T04:02:24.298Z,99939.28
2023-09-08T04:03:26.133Z,99937.19
2023-09-08T04:04:27.875Z,99935.50
2023-09-08T04:05:29.679Z,99941.94
2023-09-08T04:06:31.619Z,99943.72
2023-09-08T04:07:33.396Z,99940.94
2023-09-08T04:08:35.078Z,99945.25
2023-09-08T04:09:37.146Z,99942.47
2023-09-08T04:10:38.779Z,99937.06
2023-09-08T04:11:40.493Z,99950.28
2023-09-08T04:12:42.450Z,99949.03
2023-09-08T04:13:44.124Z,99944.88
2023-09-08T04:14:45.757Z,99944.59
2023-09-08T04:15:47.546Z,99940.25
2023-09-08T04:16:49.296Z,99941.94
2023-09-08T04:17:51.065Z,99947.50
2023-09-08T04:18:55.096Z,99952.63
2023-09-08T04:19:58.348Z,99948.31
2023-09-08T04:21:00.204Z,99947.34
2023-09-08T04:22:01.920Z,99956.94
2023-09-08T04:23:04.188Z,99950.69
2023-09-08T04:24:06.307Z,99947.91
2023-09-08T04:25:08.411Z,99944.00
2023-09-08T04:26:10.105Z,99950.03
2023-09-08T04:27:14.580Z,99948.91
2023-09-08T04:28:17.384Z,99946.00
2023-09-08T04:29:19.592Z,99951.00
2023-09-08T04:30:21.360Z,99945.44
2023-09-08T04:31:23.240Z,99947.38
2023-09-08T04:32:25.092Z,99950.84
2023-09-08T04:33:27.163Z,99948.94
2023-09-08T04:34:28.934Z,99949.75
2023-09-08T04:35:30.672Z,99951.41
2023-09-08T04:36:32.399Z,99960.03
2023-09-08T04:37:34.049Z,99952.97
2023-09-08T04:38:35.708Z,99952.84
2023-09-08T04:39:37.499Z,99952.38
2023-09-08T04:40:42.164Z,99955.03
2023-09-08T04:41:44.451Z,99955.88
2023-09-08T04:42:46.220Z,99957.84
2023-09-08T04:43:48.063Z,99951.44
2023-09-08T04:44:50.062Z,99957.56
2023-09-08T04:45:51.781Z,99948.63
2023-09-08T04:46:54.511Z,99955.47
2023-09-08T04:47:56.225Z,99958.81
2023-09-08T04:48:57.864Z,99955.19
2023-09-08T04:49:59.884Z,99956.84
2023-09-08T04:51:01.573Z,99957.53
2023-09-08T04:52:04.098Z,99946.81
2023-09-08T04:53:06.183Z,99952.13
2023-09-08T04:54:07.843Z,99949.75
2023-09-08T04:55:10.555Z,99950.00
2023-09-08T04:56:14.246Z,99951.28
2023-09-08T04:57:23.392Z,99951.84
2023-09-08T04:58:27.886Z,99959.34
2023-09-08T04:59:30.405Z,99955.19
2023-09-08T05:00:32.140Z,99950.72
2023-09-08T05:01:34.080Z,99952.84
2023-09-08T05:02:37.194Z,99956.16
2023-09-08T05:03:40.186Z,99952.97
2023-09-08T05:04:43.104Z,99957.69
2023-09-08T05:05:46.156Z,99955.19
2023-09-08T05:06:48.632Z,99950.09
2023-09-08T05:07:52.293Z,99948.66
2023-09-08T05:08:54.843Z,99957.13
2023-09-08T05:09:58.905Z,99951.63
2023-09-08T05:11:04.185Z,99956.44
2023-09-08T05:12:06.993Z,99955.25
2023-09-08T05:13:20.509Z,99959.91
2023-09-08T05:14:31.785Z,99960.66
2023-09-08T05:15:35.491Z,99963.31
2023-09-08T05:16:38.699Z,99962.31
2023-09-08T05:17:41.930Z,99958.50
2023-09-08T05:18:43.949Z,99965.47
2023-09-08T05:19:45.621Z,99962.06
2023-09-08T05:20:48.889Z,99968.50
2023-09-08T05:21:55.253Z,99962.59
2023-09-08T05:22:57.085Z,99964.69
2023-09-08T05:23:59.096Z,99959.91
2023-09-08T05:25:01.461Z,99971.25
2023-09-08T05:26:03.242Z,99970.44
2023-09-08T05:27:05.363Z,99965.97
2023-09-08T05:28:07.269Z,99963.34
2023-09-08T05:29:09.716Z,99968.69
2023-09-08T05:30:11.698Z,99966.25
2023-09-08T05:31:13.600Z,99965.91
2023-09-08T05:32:16.016Z,99969.56
2023-09-08T05:33:17.806Z,99970.91
2023-09-08T05:34:19.546Z,99965.75
2023-09-08T05:35:21.207Z,99973.09
2023-09-08T05:36:24.314Z,99972.91
2023-09-08T05:37:26.763Z,99970.09
2023-09-08T05:38:28.384Z,99969.44
2023-09-08T05:39:30.009Z,99968.78
2023-09-08T05:40:31.938Z,99970.91
2023-09-08T05:41:33.588Z,99971.56
2023-09-08T05:42:36.020Z,99972.56
2023-09-08T05:43:37.907Z,99971.91
2023-09-08T05:44:39.650Z,99973.41
2023-09-08T05:45:41.569Z,99969.22
2023-09-08T05:46:43.287Z,99972.75
2023-09-08T05:47:45.055Z,99974.72
2023-09-08T05:48:47.080Z,99978.88
2023-09-08T05:49:48.881Z,99973.34
2023-09-08T05:50:50.641Z,99978.69
2023-09-08T05:51:52.988Z,99970.41
2023-09-08T05:52:54.743Z,99974.88
2023-09-08T05:53:57.604Z,99975.53
2023-09-08T05:55:01.208Z,99970.56
2023-09-08T05:56:05.287Z,99966.88
2023-09-08T05:57:07.376Z,99963.91
2023-09-08T05:58:09.075Z,99974.41
2023-09-08T05:59:10.690Z,99966.56
2023-09-08T06:00:12.834Z,99970.41
2023-09-08T06:01:22.730Z,99967.41
2023-09-08T06:02:25.227Z,99973.72
2023-09-08T06:03:27.385Z,99973.84
2023-09-08T06:04:29.233Z,99969.50
2023-09-08T06:05:31.075Z,99962.59
2023-09-08T06:06:32.714Z,99964.56
2023-09-08T06:07:37.146Z,99973.50
2023-09-08T06:08:40.667Z,99961.78
2023-09-08T06:09:42.594Z,99969.06
2023-09-08T06:10:44.244Z,99967.28
2023-09-08T06:11:46.004Z,99965.31
2023-09-08T06:12:47.972Z,99961.22
2023-09-08T06:13:49.860Z,99962.09
2023-09-08T06:14:51.620Z,99970.78
2023-09-08T06:15:53.323Z,99972.69
2023-09-08T06:16:55.114Z,99960.25
2023-09-08T06:17:57.461Z,99965.59
2023-09-08T06:18:59.164Z,99967.88
2023-09-08T06:20:01.333Z,99962.28
2023-09-08T06:21:03.105Z,99961.94
2023-09-08T06:22:04.837Z,99961.72
2023-09-08T06:23:06.669Z,99954.97
2023-09-08T06:24:08.645Z,99950.72
2023-09-08T06:25:11.286Z,99952.41
2023-09-08T06:26:13.821Z,99951.31
2023-09-08T06:27:16.215Z,99953.75
2023-09-08T06:28:18.274Z,99955.78
2023-09-08T06:29:19.952Z,99956.19
2023-09-08T06:30:21.704Z,99958.81
2023-09-08T06:31:24.308Z,99955.81
2023-09-08T06:32:26.078Z,99955.75
2023-09-08T06:33:27.960Z,99958.72
2023-09-08T06:34:30.451Z,99963.34
2023-09-08T06:35:32.790Z,99952.84
2023-09-08T06:36:34.634Z,99956.81
2023-09-08T06:37:37.862Z,99958.50
2023-09-08T06:38:39.748Z,99963.66
2023-09-08T06:39:41.441Z,99960.03
2023-09-08T06:40:43.365Z,99956.75
2023-09-08T06:41:45.040Z,99958.59
2023-09-08T06:42:49.759Z,99954.84
2023-09-08T06:44:01.050Z,99957.03
2023-09-08T06:45:04.176Z,99960.94
2023-09-08T06:46:05.926Z,99955.22
2023-09-08T06:47:08.601Z,99960.41
2023-09-08T06:48:10.868Z,99956.94
2023-09-08T06:49:12.578Z,99953.63
2023-09-08T06:50:14.307Z,99959.81
2023-09-08T06:51:16.000Z,99957.13
2023-09-08T06:52:18.999Z,99965.94
2023-09-08T06:53:20.728Z,99967.69
2023-09-08T06:54:22.814Z,99961.47
2023-09-08T06:55:24.556Z,99958.44
2023-09-08T06:56:26.252Z,99965.09
2023-09-08T06:57:28.262Z,99971.72
2023-09-08T06:58:29.964Z,99966.13
2023-09-08T06:59:32.241Z,99967.59
2023-09-08T07:00:34.543Z,99965.09
2023-09-08T07:01:37.976Z,99963.25
2023-09-08T07:02:40.973Z,99969.16
2023-09-08T07:03:43.081Z,99972.44
2023-09-08T07:04:45.983Z,99965.78
2023-09-08T07:05:47.874Z,99968.28
2023-09-08T07:06:49.878Z,99961.88
2023-09-08T07:07:51.723Z,99970.91
2023-09-08T07:08:53.370Z,99969.47
2023-09-08T07:09:56.263Z,99972.59
2023-09-08T07:10:58.040Z,99973.00
2023-09-08T07:11:59.819Z,99966.25
2023-09-08T07:13:01.577Z,99965.28
2023-09-08T07:14:03.507Z,99965.47
2023-09-08T07:15:05.667Z,99967.31
2023-09-08T07:16:08.026Z,99975.97
2023-09-08T07:17:10.618Z,99965.34
2023-09-08T07:18:12.398Z,99971.63
2023-09-08T07:19:14.135Z,99969.31
2023-09-08T07:20:15.928Z,99972.91
2023-09-08T07:21:17.848Z,99961.50
2023-09-08T07:22:20.187Z,99964.97
2023-09-08T07:23:21.882Z,99961.28
2023-09-08T07:24:23.655Z,99963.19
2023-09-08T07:25:25.355Z,99958.91
2023-09-08T07:26:27.147Z,99964.13
2023-09-08T07:27:29.153Z,99965.41
2023-09-08T07:28:31.325Z,99969.56
2023-09-08T07:29:36.858Z,99962.75
2023-09-08T07:30:38.590Z,99963.78
2023-09-08T07:31:40.452Z,99963.16
2023-09-08T07:32:42.386Z,99963.28
2023-09-08T07:33:44.155Z,99959.53
2023-09-08T07:34:46.335Z,99959.72
2023-09-08T07:35:48.026Z,99962.28
2023-09-08T07:36:49.880Z,99961.28
2023-09-08T07:37:51.664Z,99956.41
2023-09-08T07:38:53.480Z,99949.88
2023-09-08T07:39:55.662Z,99959.78
2023-09-08T07:40:57.298Z,99954.88
2023-09-08T07:42:01.544Z,99963.78
2023-09-08T07:43:03.833Z,99955.53
2023-09-08T07:44:06.006Z,99954.50
2023-09-08T07:45:08.654Z,99953.94
2023-09-08T07:46:10.344Z,99951.06
2023-09-08T07:47:12.194Z,99958.31
2023-09-08T07:48:13.894Z,99956.66
2023-09-08T07:49:16.017Z,99955.47
2023-09-08T07:50:28.715Z,99956.31
2023-09-08T07:51:30.379Z,99957.72
2023-09-08T07:52:32.197Z,99959.78
2023-09-08T07:53:33.867Z,99953.81
2023-09-08T07:54:35.699Z,99959.19
2023-09-08T07:55:37.405Z,99961.06
2023-09-08T07:56:39.104Z,99963.53
2023-09-08T07:57:43.451Z,99964.56
2023-09-08T07:58:45.192Z,99960.66
2023-09-08T07:59:46.830Z,99949.31
2023-09-08T08:00:48.803Z,99955.50
2023-09-08T08:01:50.484Z,99965.41
2023-09-08T08:02:55.291Z,99957.56
2023-09-08T08:03:57.038Z,99948.91
2023-09-08T08:04:59.084Z,99958.44
2023-09-08T08:06:00.745Z,99953.09
2023-09-08T08:07:02.489Z,99957.44
2023-09-08T08:08:04.388Z,99954.59
2023-09-08T08:09:06.286Z,99947.53
2023-09-08T08:10:08.446Z,99952.72
2023-09-08T08:11:14.765Z,99946.94
2023-09-08T08:12:16.606Z,99947.38
2023-09-08T08:13:18.311Z,99944.94
2023-09-08T08:14:19.939Z,99943.06
2023-09-08T08:15:22.167Z,99940.38
2023-09-08T08:16:24.612Z,99947.22
2023-09-08T08:17:26.546Z,99944.09
2023-09-08T08:18:28.323Z,99943.28
2023-09-08T08:19:30.193Z,99944.31
2023-09-08T08:20:31.883Z,99948.66
2023-09-08T08:21:33.643Z,99943.06
2023-09-08T08:22:35.517Z,99943.28
2023-09-08T08:23:37.179Z,99940.59
2023-09-08T08:24:39.099Z,99939.56
2023-09-08T08:25:40.743Z,99945.97
2023-09-08T08:26:42.394Z,99942.25
2023-09-08T08:27:44.092Z,99942.66
2023-09-08T08:28:46.102Z,99946.59
2023-09-08T08:29:47.723Z,99950.13
2023-09-08T08:30:49.510Z,99943.91
2023-09-08T08:31:51.203Z,99947.44
2023-09-08T08:32:52.941Z,99942.88
2023-09-08T08:33:54.721Z,99948.44
2023-09-08T08:34:56.687Z,99944.09
2023-09-08T08:35:58.387Z,99938.09
2023-09-08T08:37:00.008Z,99937.69
2023-09-08T08:38:01.817Z,99939.72
2023-09-08T08:39:03.622Z,99929.34
2023-09-08T08:40:05.913Z,99935.97
2023-09-08T08:41:07.601Z,99935.09
2023-09-08T08:42:10.349Z,99931.56
2023-09-08T08:43:12.377Z,99937.34
2023-09-08T08:44:16.486Z,99927.16
2023-09-08T08:45:20.157Z,99934.38
2023-09-08T08:46:23.419Z,99933.97
2023-09-08T08:47:26.824Z,99931.94
2023-09-08T08:48:30.709Z,99926.91
2023-09-08T08:49:33.641Z,99929.84
2023-09-08T08:50:36.937Z,99925.47
2023-09-08T08:51:40.443Z,99930.25
2023-09-08T08:52:42.313Z,99929.00
2023-09-08T08:53:44.043Z,99932.75
2023-09-08T08:54:46.545Z,99927.59
2023-09-08T08:55:50.294Z,99927.34
2023-09-08T08:56:52.350Z,99921.94
2023-09-08T08:57:54.220Z,99925.22
2023-09-08T08:58:57.589Z,99920.28
2023-09-08T09:00:01.196Z,99924.63
2023-09-08T09:01:04.376Z,99923.38
2023-09-08T09:02:06.525Z,99928.16
2023-09-08T09:03:15.333Z,99920.25
2023-09-08T09:04:18.659Z,99919.41
2023-09-08T09:05:20.515Z,99919.00
2023-09-08T09:06:22.404Z,99916.47
2023-09-08T09:07:24.936Z,99910.00
2023-09-08T09:08:27.986Z,99911.00
2023-09-08T09:09:29.970Z,99910.94
2023-09-08T09:10:32.678Z,99917.13
2023-09-08T09:11:34.350Z,99915.22
2023-09-08T09:12:39.245Z,99909.97
2023-09-08T09:13:40.879Z,99906.16
2023-09-08T09:14:48.263Z,99906.75
2023-09-08T09:15:52.298Z,99907.28
2023-09-08T09:16:57.269Z,99913.28
2023-09-08T09:18:06.912Z,99910.34
2023-09-08T09:19:09.153Z,99906.63
2023-09-08T09:20:17.936Z,99909.75
2023-09-08T09:21:19.612Z,99909.69
2023-09-08T09:22:22.217Z,99908.00
2023-09-08T09:23:30.049Z,99911.44
2023-09-08T09:24:33.504Z,99909.78
2023-09-08T09:25:35.302Z,99916.56
2023-09-08T09:26:37.159Z,99908.19
2023-09-08T09:27:38.830Z,99907.69
2023-09-08T09:28:49.723Z,99912.13
2023-09-08T09:29:51.528Z,99910.38
2023-09-08T09:30:54.141Z,99903.28
2023-09-08T09:32:05.258Z,99901.34
2023-09-08T09:33:07.133Z,99897.78
2023-09-08T09:34:08.854Z,99904.75
2023-09-08T09:35:10.581Z,99905.09
2023-09-08T09:36:21.756Z,99901.97
2023-09-08T09:37:24.403Z,99903.97
2023-09-08T09:38:27.593Z,99903.91
2023-09-08T09:39:29.259Z,99902.00
2023-09-08T09:40:30.935Z,99899.00
2023-09-08T09:41:32.651Z,99898.34
2023-09-08T09:42:34.465Z,99905.06
2023-09-08T09:43:36.298Z,99903.13
2023-09-08T09:44:38.027Z,99902.19
2023-09-08T09:45:40.934Z,99897.56
2023-09-08T09:46:46.637Z,99897.81
2023-09-08T09:47:48.944Z,99892.09
2023-09-08T09:48:56.985Z,99893.53
2023-09-08T09:49:58.686Z,99891.28
2023-09-08T09:51:01.578Z,99889.66
2023-09-08T09:52:03.932Z,99891.59
2023-09-08T09:53:11.293Z,99889.28
2023-09-08T09:54:13.219Z,99888.59
2023-09-08T09:55:14.850Z,99889.28
2023-09-08T09:56:18.380Z,99890.03
2023-09-08T09:57:22.301Z,99887.22
2023-09-08T09:58:26.001Z,99888.38
2023-09-08T09:59:28.148Z,99880.53
2023-09-08T10:00:29.861Z,99887.34
2023-09-08T10:01:33.229Z,99882.97
2023-09-08T10:02:35.630Z,99884.63
2023-09-08T10:03:37.447Z,99891.81
2023-09-08T10:04:41.581Z,99888.53
2023-09-08T10:05:43.379Z,99885.00
2023-09-08T10:06:46.485Z,99881.13
2023-09-08T10:07:51.464Z,99876.88
2023-09-08T10:08:55.208Z,99879.47
2023-09-08T10:09:56.880Z,99879.84
2023-09-08T10:11:00.315Z,99878.13
2023-09-08T10:12:05.623Z,99884.09
2023-09-08T10:13:08.463Z,99880.94
2023-09-08T10:14:12.177Z,99878.59
2023-09-08T10:15:19.339Z,99877.88
2023-09-08T10:16:22.283Z,99881.53
2023-09-08T10:17:28.840Z,99878.69
2023-09-08T10:18:32.257Z,99879.88
2023-09-08T10:19:35.992Z,99882.34
2023-09-08T10:20:39.038Z,99881.66
2023-09-08T10:21:42.888Z,99882.34
2023-09-08T10:22:45.874Z,99882.34
2023-09-08T10:23:58.358Z,99872.47
2023-09-08T10:25:05.103Z,99880.81
2023-09-08T10:26:11.012Z,99882.56
2023-09-08T10:27:13.327Z,99881.63
2023-09-08T10:28:16.960Z,99871.50
2023-09-08T10:29:19.454Z,99875.41
2023-09-08T10:30:22.471Z,99877.66
2023-09-08T10:31:29.192Z,99876.13
2023-09-08T10:32:32.598Z,99883.53
2023-09-08T10:33:36.978Z,99881.53
2023-09-08T10:34:40.045Z,99877.88
2023-09-08T10:35:43.369Z,99877.41
2023-09-08T10:36:45.185Z,99876.34
2023-09-08T10:37:46.845Z,99872.25
2023-09-08T10:38:48.520Z,99869.03
2023-09-08T10:39:50.270Z,99873.41
2023-09-08T10:40:52.972Z,99879.50
2023-09-08T10:42:17.296Z,99870.44
2023-09-08T10:43:20.080Z,99873.03
2023-09-08T10:44:23.353Z,99863.25
2023-09-08T10:45:26.647Z,99868.78
2023-09-08T10:46:29.960Z,99868.69
2023-09-08T10:47:48.164Z,99863.06
2023-09-08T10:48:49.911Z,99862.66
2023-09-08T10:49:52.399Z,99873.63
2023-09-08T10:50:54.044Z,99869.28
2023-09-08T10:52:08.919Z,99868.53
2023-09-08T10:53:13.146Z,99867.28
2023-09-08T10:54:45.066Z,99865.50
2023-09-08T10:56:15.808Z,99865.63
2023-09-08T10:57:19.912Z,99862.31
2023-09-08T10:58:32.099Z,99865.03
2023-09-08T10:59:39.209Z,99859.97
2023-09-08T11:00:45.906Z,99856.56
2023-09-08T11:01:48.794Z,99855.59
2023-09-08T11:02:51.239Z,99847.91
2023-09-08T11:03:53.720Z,99847.78
2023-09-08T11:04:56.207Z,99841.19
2023-09-08T11:05:58.469Z,99850.75
2023-09-08T11:07:00.220Z,99844.13
2023-09-08T11:08:01.868Z,99836.34
2023-09-08T11:09:09.447Z,99836.06
2023-09-08T11:10:12.612Z,99837.50
2023-09-08T11:11:16.114Z,99839.13
2023-09-08T11:12:18.001Z,99832.66
2023-09-08T11:13:19.622Z,99833.00
2023-09-08T11:14:21.333Z,99831.69
2023-09-08T11:15:23.394Z,99828.50
2023-09-08T11:16:25.441Z,99825.06
2023-09-08T11:17:27.934Z,99831.63
2023-09-08T11:18:30.945Z,99831.03
2023-09-08T11:19:49.362Z,99837.53
2023-09-08T11:20:53.917Z,99834.00
2023-09-08T11:21:56.632Z,99831.56
2023-09-08T11:22:59.070Z,99829.34
2023-09-08T11:24:00.772Z,99834.88
2023-09-08T11:25:03.130Z,99838.59
2023-09-08T11:26:05.119Z,99834.16
2023-09-08T11:27:06.788Z,99829.78
2023-09-08T11:28:08.527Z,99830.84
2023-09-08T11:29:10.968Z,99833.91
2023-09-08T11:30:13.648Z,99829.78
2023-09-08T11:31:15.381Z,99828.16
2023-09-08T11:32:17.122Z,99823.22
2023-09-08T11:33:20.702Z,99833.31
2023-09-08T11:34:22.416Z,99825.53
2023-09-08T11:35:27.904Z,99834.22
2023-09-08T11:36:30.540Z,99825.88
2023-09-08T11:37:32.207Z,99830.09
2023-09-08T11:38:34.051Z,99822.06
2023-09-08T11:39:42.110Z,99831.34
2023-09-08T11:40:43.932Z,99826.50
2023-09-08T11:41:46.116Z,99825.09
2023-09-08T11:42:47.854Z,99824.63
2023-09-08T11:43:50.713Z,99819.88
2023-09-08T11:44:52.389Z,99825.28
2023-09-08T11:45:54.296Z,99815.34
2023-09-08T11:46:56.269Z,99823.38
2023-09-08T11:47:58.548Z,99825.59
2023-09-08T11:49:00.486Z,99822.06
2023-09-08T11:50:03.560Z,99814.56
2023-09-08T11:51:08.108Z,99818.34
2023-09-08T11:52:09.819Z,99818.66
2023-09-08T11:53:11.625Z,99813.22
2023-09-08T11:54:13.555Z,99812.53
2023-09-08T11:55:16.066Z,99812.41
2023-09-08T11:56:18.153Z,99809.25
2023-09-08T11:57:20.684Z,99805.41
2023-09-08T11:58:23.489Z,99816.66
2023-09-08T11:59:26.553Z,99819.75
2023-09-08T12:00:29.342Z,99814.66
2023-09-08T12:01:31.129Z,99804.28
2023-09-08T12:02:36.507Z,99812.91
2023-09-08T12:03:53.131Z,99813.97
2023-09-08T12:04:55.181Z,99809.63
2023-09-08T12:05:56.903Z,99809.72
2023-09-08T12:06:58.720Z,99808.78
2023-09-08T12:08:00.430Z,99810.84
2023-09-08T12:09:02.404Z,99808.69
2023-09-08T12:10:09.201Z,99808.41
2023-09-08T12:11:11.027Z,99800.47
2023-09-08T12:12:13.752Z,99800.41
2023-09-08T12:13:22.062Z,99799.19
2023-09-08T12:14:23.744Z,99800.41
2023-09-08T12:15:39.688Z,99800.03
2023-09-08T12:16:42.860Z,99792.59
2023-09-08T12:17:50.923Z,99798.31
2023-09-08T12:18:52.649Z,99790.19